East Boston, Massachusetts
Current Conditions -  °F | °C
As of 10:26 PM on Wednesday 22 Oct 2014 (Local Time) from KBOS Reporting Station
Thunderstorm Thunderstorm  
Wind Chill: 52°   Ceiling: 900
Heat Index: 52°   Visibility: 2mi
Dew Point: 50°   Wind: 40mph
Humidity: 94%   Direction: 30°NNE
Pressure: 29.78"   Gusts: 49mph
Location:  42.3583°N, 71.0602°W
Report Text: KBOS 230226Z 03035G43KT 2SM R04R/6000VP6000FT TSRA BR BKN009 OVC013CB 11/10 A2978 RMK AO2 PK WND 03044/0215 TSB05 OCNL LTGICCC S-W TS S-W MOV NW P0009
Loading
Personal Weather Stations






























Interactive Weather Map
Tropical Storm Tracking
New forecast layout! Learn more

10-Day Weather Forecast

Advertisements
Track Severe Weather on mobile